Time;durP1;ratioP1;P1;durP2;ratioP2;P2;SDS_P1;SDS_P2;PMS_P1;PMS_P2;Temp;Humidity;BMP_temperature;BMP_pressure;BME280_temperature;BME280_humidity;BME280_pressure;Samples;Min_cycle;Max_cycle;Signal;HPM_P1;HPM_P2
2021/10/20 00:01:02;;;;;;;6.87;5.33;;;;;;;14.30;69.69;100522.83;1726677;82;21510;-81
2021/10/20 00:03:28;;;;;;;11.33;5.62;;;;;;;14.31;69.77;100524.50;1783604;79;21043;-81
2021/10/20 00:05:57;;;;;;;6.45;4.45;;;;;;;14.32;69.85;100528.81;1718320;83;21409;-81
2021/10/20 00:08:23;;;;;;;8.85;5.47;;;;;;;14.34;69.91;100532.19;1761164;80;21552;-81
2021/10/20 00:10:49;;;;;;;8.98;4.80;;;;;;;14.33;69.99;100529.15;1773306;80;21031;-81
2021/10/20 00:13:15;;;;;;;8.63;5.60;;;;;;;14.33;70.05;100528.31;1749057;81;21086;-80
2021/10/20 00:15:41;;;;;;;8.73;5.10;;;;;;;14.34;70.16;100529.51;1782613;80;22068;-80
2021/10/20 00:18:07;;;;;;;7.62;4.65;;;;;;;14.35;70.25;100527.16;1812157;78;21476;-80
2021/10/20 00:20:33;;;;;;;7.47;4.50;;;;;;;14.35;70.33;100529.00;1820918;78;21601;-80
2021/10/20 00:22:59;;;;;;;7.22;4.40;;;;;;;14.35;70.44;100528.50;1765952;80;21044;-80
2021/10/20 00:25:25;;;;;;;8.70;4.78;;;;;;;14.36;70.53;100527.45;1764520;80;21004;-80
2021/10/20 00:27:51;;;;;;;9.63;5.30;;;;;;;14.35;70.62;100524.98;1786249;78;21332;-80
2021/10/20 00:30:17;;;;;;;7.83;4.85;;;;;;;14.33;70.75;100527.80;1797453;78;21050;-80
2021/10/20 00:32:44;;;;;;;7.55;5.00;;;;;;;14.30;70.89;100519.30;1797132;78;21118;-81
2021/10/20 00:35:10;;;;;;;9.88;4.70;;;;;;;14.27;71.06;100520.53;1775371;79;21082;-81
2021/10/20 00:37:36;;;;;;;8.10;4.83;;;;;;;14.25;71.23;100514.50;1780428;79;21713;-81
2021/10/20 00:40:04;;;;;;;8.68;5.12;;;;;;;14.22;71.35;100510.87;1769336;80;21954;-80
2021/10/20 00:42:30;;;;;;;6.90;5.30;;;;;;;14.21;71.49;100515.10;1694816;83;21480;-80
2021/10/20 00:45:00;;;;;;;11.30;5.75;;;;;;;14.20;71.65;100514.27;1747675;81;21526;-80
2021/10/20 00:47:26;;;;;;;11.95;6.45;;;;;;;14.21;71.76;100510.57;1722376;83;21012;-80
2021/10/20 00:49:52;;;;;;;9.73;5.72;;;;;;;14.20;71.91;100503.53;1708057;82;21068;-80
2021/10/20 00:52:19;;;;;;;8.18;4.83;;;;;;;14.21;72.01;100497.16;1707731;82;21187;-80
2021/10/20 00:54:45;;;;;;;9.93;6.55;;;;;;;14.22;72.12;100493.44;1718688;83;21054;-80
2021/10/20 00:57:12;;;;;;;13.45;5.87;;;;;;;14.22;72.21;100490.75;1720345;83;20931;-80
2021/10/20 00:59:39;;;;;;;8.35;4.90;;;;;;;14.23;72.31;100487.05;1720836;83;21503;-80
2021/10/20 01:02:06;;;;;;;8.30;5.28;;;;;;;14.24;72.42;100482.52;1719480;83;20991;-80
2021/10/20 01:04:32;;;;;;;14.90;6.67;;;;;;;14.24;72.52;100475.31;1722262;82;21126;-80
2021/10/20 01:06:58;;;;;;;14.83;5.15;;;;;;;14.25;72.60;100474.27;1752396;81;21551;-80
2021/10/20 01:09:24;;;;;;;9.60;4.25;;;;;;;14.27;72.70;100468.72;1721780;82;21516;-80
2021/10/20 01:11:51;;;;;;;10.98;5.60;;;;;;;14.29;72.78;100459.45;1722302;82;21547;-80
2021/10/20 01:14:17;;;;;;;23.10;8.95;;;;;;;14.30;72.88;100454.41;1692129;84;21059;-80
2021/10/20 01:16:43;;;;;;;18.05;9.58;;;;;;;14.31;72.93;100452.06;1701140;83;21073;-80
2021/10/20 01:19:09;;;;;;;10.32;6.28;;;;;;;14.31;73.00;100454.74;1715084;83;21059;-80
2021/10/20 01:21:36;;;;;;;14.05;6.12;;;;;;;14.31;73.06;100442.67;1691283;83;21074;-80
2021/10/20 01:24:02;;;;;;;12.75;5.90;;;;;;;14.32;73.15;100448.33;1728064;82;21575;-80
2021/10/20 01:26:28;;;;;;;6.30;4.55;;;;;;;14.31;73.24;100441.33;1694958;83;21435;-80
2021/10/20 01:28:54;;;;;;;6.47;4.62;;;;;;;14.32;73.33;100444.84;1697532;83;21774;-80
2021/10/20 01:31:21;;;;;;;7.22;4.58;;;;;;;14.32;73.42;100444.84;1716599;83;21003;-80
2021/10/20 01:33:46;;;;;;;7.55;4.55;;;;;;;14.30;73.48;100437.48;1703147;83;21003;-81
2021/10/20 01:36:13;;;;;;;6.97;4.05;;;;;;;14.30;73.55;100436.98;1753368;81;21034;-81
2021/10/20 01:38:39;;;;;;;7.75;4.65;;;;;;;14.29;73.60;100431.28;1719683;83;21018;-81
2021/10/20 01:41:05;;;;;;;8.68;5.00;;;;;;;14.29;73.67;100429.11;1751968;81;21141;-81
2021/10/20 01:43:44;;;;;;;9.20;4.50;;;;;;;14.30;73.74;100436.98;1752375;81;20853;-81
2021/10/20 01:46:12;;;;;;;8.60;4.50;;;;;;;14.31;73.81;100439.98;1726931;82;21016;-81
2021/10/20 01:48:38;;;;;;;7.62;4.60;;;;;;;14.31;73.90;100429.26;1723300;82;21111;-81
2021/10/20 01:51:05;;;;;;;5.50;4.55;;;;;;;14.31;73.98;100430.59;1722399;83;21106;-80
2021/10/20 01:53:32;;;;;;;5.72;4.42;;;;;;;14.30;74.02;100430.27;1723238;82;21123;-80
2021/10/20 01:55:58;;;;;;;9.43;4.35;;;;;;;14.28;74.13;100428.30;1723229;82;21515;-80
2021/10/20 01:58:24;;;;;;;7.22;4.47;;;;;;;14.28;74.20;100425.62;1723130;83;21059;-81
2021/10/20 02:00:50;;;;;;;9.15;5.22;;;;;;;14.28;74.26;100420.77;1718744;83;21019;-80
2021/10/20 02:03:16;;;;;;;9.20;5.92;;;;;;;14.25;74.34;100416.59;1733709;81;21062;-80
2021/10/20 02:05:42;;;;;;;7.95;5.42;;;;;;;14.26;74.40;100413.41;1732787;81;21627;-80
2021/10/20 02:08:08;;;;;;;8.63;5.12;;;;;;;14.24;74.50;100409.59;1692403;84;20999;-80
2021/10/20 02:10:34;;;;;;;10.03;5.17;;;;;;;14.25;74.58;100402.38;1723148;81;21542;-80
2021/10/20 02:13:00;;;;;;;6.28;4.80;;;;;;;14.25;74.65;100415.25;1692858;84;20995;-80
2021/10/20 02:15:27;;;;;;;8.80;4.67;;;;;;;14.26;74.72;100403.51;1736098;81;21050;-80
2021/10/20 02:17:53;;;;;;;9.20;4.62;;;;;;;14.27;74.80;100401.16;1728676;81;21531;-81
2021/10/20 02:20:19;;;;;;;7.90;4.72;;;;;;;14.28;74.88;100402.82;1694058;84;21027;-80
2021/10/20 02:22:47;;;;;;;7.50;4.65;;;;;;;14.30;74.93;100399.42;1722891;83;32558;-81
2021/10/20 02:25:13;;;;;;;7.35;4.90;;;;;;;14.30;74.98;100384.66;1694025;84;21055;-80
2021/10/20 02:27:39;;;;;;;8.38;5.25;;;;;;;14.31;75.01;100390.36;1723320;82;21015;-81
2021/10/20 02:30:06;;;;;;;7.33;5.22;;;;;;;14.30;75.06;100387.34;1694285;84;21611;-80
2021/10/20 02:32:32;;;;;;;6.50;4.80;;;;;;;14.30;75.07;100386.00;1725217;81;21717;-80
2021/10/20 02:34:58;;;;;;;6.33;4.58;;;;;;;14.31;75.15;100379.63;1713924;82;20931;-81
2021/10/20 02:37:24;;;;;;;6.78;4.47;;;;;;;14.31;75.16;100370.74;1782939;80;20995;-81
2021/10/20 02:39:50;;;;;;;6.87;4.83;;;;;;;14.28;75.19;100382.70;1782996;80;21014;-81
2021/10/20 02:42:16;;;;;;;5.30;4.33;;;;;;;14.25;75.24;100380.38;1782932;80;21123;-81
2021/10/20 02:44:42;;;;;;;9.35;5.17;;;;;;;14.23;75.30;100382.95;1783092;80;21046;-81
2021/10/20 02:47:08;;;;;;;6.05;3.83;;;;;;;14.21;75.32;100373.77;1782562;80;21035;-81
2021/10/20 02:49:34;;;;;;;8.58;4.80;;;;;;;14.19;75.33;100377.14;1783107;80;21038;-81
2021/10/20 02:52:01;;;;;;;7.58;5.15;;;;;;;14.19;75.39;100381.16;1783146;78;20990;-81
2021/10/20 02:54:27;;;;;;;5.55;4.20;;;;;;;14.17;75.42;100376.52;1784581;78;21150;-80
2021/10/20 02:56:53;;;;;;;5.75;4.25;;;;;;;14.19;75.46;100374.45;1747940;82;21031;-80
2021/10/20 02:59:19;;;;;;;5.70;4.70;;;;;;;14.19;75.47;100377.14;1761666;80;21532;-80
2021/10/20 03:01:45;;;;;;;10.15;4.50;;;;;;;14.17;75.52;100379.20;1799598;78;21515;-80
2021/10/20 03:04:11;;;;;;;5.78;4.42;;;;;;;14.18;75.53;100382.72;1792025;78;21002;-81
2021/10/20 03:06:37;;;;;;;9.25;5.87;;;;;;;14.18;75.55;100378.16;1783202;80;21707;-80
2021/10/20 03:09:03;;;;;;;9.90;5.17;;;;;;;14.18;75.58;100371.98;1783412;79;21014;-80
2021/10/20 03:11:29;;;;;;;6.50;4.37;;;;;;;14.20;75.59;100381.48;1796786;78;21031;-80
2021/10/20 03:13:56;;;;;;;6.70;4.50;;;;;;;14.22;75.62;100375.41;1748638;82;21520;-80
2021/10/20 03:16:23;;;;;;;6.97;4.35;;;;;;;14.24;75.61;100369.35;1786751;80;21074;-80
2021/10/20 03:18:49;;;;;;;5.47;4.12;;;;;;;14.26;75.63;100359.25;1783091;80;21140;-80
2021/10/20 03:21:15;;;;;;;8.95;4.40;;;;;;;14.30;75.64;100371.25;1804316;78;21483;-80
2021/10/20 03:23:41;;;;;;;8.63;4.85;;;;;;;14.32;75.67;100375.09;1785272;80;21018;-80
2021/10/20 03:26:07;;;;;;;8.03;4.67;;;;;;;14.33;75.64;100371.36;1754071;81;21047;-79
2021/10/20 03:28:33;;;;;;;8.33;4.25;;;;;;;14.33;75.65;100364.15;1752565;81;21101;-80
2021/10/20 03:30:59;;;;;;;7.50;5.22;;;;;;;14.33;75.65;100366.00;1784919;80;21129;-80
2021/10/20 03:33:25;;;;;;;8.13;4.67;;;;;;;14.34;75.65;100357.80;1791667;79;21216;-79
2021/10/20 03:35:51;;;;;;;6.83;4.80;;;;;;;14.34;75.65;100355.63;1799675;79;21002;-80
2021/10/20 03:38:17;;;;;;;5.87;5.22;;;;;;;14.35;75.64;100355.45;1797700;79;21061;-80
2021/10/20 03:40:43;;;;;;;6.85;4.92;;;;;;;14.35;75.63;100350.08;1797860;79;21027;-80
2021/10/20 03:43:09;;;;;;;5.85;4.47;;;;;;;14.35;75.63;100352.76;1797323;79;21579;-79
2021/10/20 03:45:35;;;;;;;8.40;5.30;;;;;;;14.34;75.62;100344.39;1797539;79;20969;-80
2021/10/20 03:48:01;;;;;;;7.95;4.72;;;;;;;14.32;75.61;100350.41;1798648;79;20974;-80
2021/10/20 03:50:27;;;;;;;10.25;5.87;;;;;;;14.26;75.59;100347.17;1763364;81;21085;-80
2021/10/20 03:52:53;;;;;;;6.97;5.28;;;;;;;14.21;75.61;100347.45;1780673;80;21007;-80
2021/10/20 03:55:19;;;;;;;7.10;4.83;;;;;;;14.15;75.61;100347.70;1781094;79;21828;-80
2021/10/20 03:57:45;;;;;;;9.98;5.10;;;;;;;14.05;75.60;100348.55;1737314;82;21002;-80
2021/10/20 04:00:15;;;;;;;8.63;5.22;;;;;;;14.03;75.64;100353.30;1780585;80;21333;-80
2021/10/20 04:02:44;;;;;;;10.38;6.55;;;;;;;13.97;75.67;100344.15;1737509;82;21029;-80
2021/10/20 04:05:13;;;;;;;8.55;5.55;;;;;;;13.94;75.69;100343.70;1780509;80;21496;-80
2021/10/20 04:07:40;;;;;;;6.83;5.43;;;;;;;13.91;75.72;100346.78;1780600;80;21537;-80
2021/10/20 04:10:08;;;;;;;7.83;5.53;;;;;;;13.85;75.72;100341.69;1737257;82;22209;-80
2021/10/20 04:12:34;;;;;;;12.30;6.05;;;;;;;13.82;75.77;100338.56;1780858;80;21011;-80
2021/10/20 04:15:00;;;;;;;9.43;6.05;;;;;;;13.77;75.81;100334.27;1736963;82;21015;-79
2021/10/20 04:17:26;;;;;;;9.60;5.50;;;;;;;13.77;75.83;100327.57;1781075;80;21511;-80
2021/10/20 04:19:52;;;;;;;8.00;6.28;;;;;;;13.75;75.87;100328.29;1782963;79;21507;-80
2021/10/20 04:22:18;;;;;;;11.10;6.10;;;;;;;13.74;75.89;100326.62;1780803;80;21524;-80
2021/10/20 04:24:44;;;;;;;8.35;6.10;;;;;;;13.72;75.96;100326.00;1781072;80;21559;-80
2021/10/20 04:27:10;;;;;;;10.88;6.35;;;;;;;13.71;76.00;100324.33;1780718;80;21018;-80
2021/10/20 04:29:36;;;;;;;14.75;7.80;;;;;;;13.68;76.04;100318.02;1780786;80;21042;-80
2021/10/20 04:32:03;;;;;;;10.93;6.90;;;;;;;13.66;76.08;100318.70;1780427;80;21122;-81
2021/10/20 04:34:29;;;;;;;9.20;6.75;;;;;;;13.64;76.10;100316.73;1775048;80;21464;-81
2021/10/20 04:36:55;;;;;;;7.78;6.40;;;;;;;13.61;76.14;100317.12;1769266;81;21007;-80
2021/10/20 04:39:21;;;;;;;9.78;6.72;;;;;;;13.58;76.18;100310.81;1770250;79;21012;-81
2021/10/20 04:41:47;;;;;;;10.15;6.95;;;;;;;13.58;76.22;100309.47;1694167;84;21036;-81
2021/10/20 04:44:13;;;;;;;14.35;8.25;;;;;;;13.55;76.24;100308.48;1738087;81;21150;-80
2021/10/20 04:46:39;;;;;;;11.50;7.12;;;;;;;13.52;76.26;100304.34;1705821;82;21496;-80
2021/10/20 04:49:05;;;;;;;13.18;9.38;;;;;;;13.47;76.31;100303.57;1724132;82;21542;-81
2021/10/20 04:51:31;;;;;;;10.45;7.33;;;;;;;13.45;76.33;100289.55;1735903;81;21026;-80
2021/10/20 04:53:57;;;;;;;13.55;8.03;;;;;;;13.45;76.36;100290.06;1724118;83;21019;-80
2021/10/20 04:56:23;;;;;;;11.03;8.30;;;;;;;13.44;76.38;100293.24;1724298;82;21025;-80
2021/10/20 04:58:49;;;;;;;9.98;6.62;;;;;;;13.43;76.39;100294.79;1724104;82;21027;-80
2021/10/20 05:01:15;;;;;;;7.55;6.15;;;;;;;13.42;76.43;100293.12;1724138;82;21008;-80
2021/10/20 05:03:42;;;;;;;9.45;6.62;;;;;;;13.42;76.46;100291.78;1724159;83;21056;-80
2021/10/20 05:06:08;;;;;;;6.87;5.72;;;;;;;13.42;76.52;100287.26;1723840;82;21570;-80
2021/10/20 05:08:34;;;;;;;10.43;6.25;;;;;;;13.43;76.52;100286.25;1724309;82;22231;-80
2021/10/20 05:11:00;;;;;;;12.33;7.72;;;;;;;13.40;76.55;100278.59;1723942;82;21479;-80
2021/10/20 05:13:26;;;;;;;11.38;7.75;;;;;;;13.40;76.57;100276.42;1724188;82;21645;-80
2021/10/20 05:15:52;;;;;;;14.85;8.20;;;;;;;13.39;76.58;100271.58;1742879;81;21471;-80
2021/10/20 05:18:18;;;;;;;10.05;6.17;;;;;;;13.37;76.60;100266.90;1754211;81;21488;-80
2021/10/20 05:20:44;;;;;;;10.48;6.62;;;;;;;13.38;76.61;100269.91;1754350;81;21777;-80
2021/10/20 05:23:10;;;;;;;8.18;5.97;;;;;;;13.37;76.59;100260.73;1753806;81;20988;-80
2021/10/20 05:25:37;;;;;;;9.28;6.30;;;;;;;13.36;76.61;100251.88;1754362;81;21016;-80
2021/10/20 05:28:05;;;;;;;7.87;5.85;;;;;;;13.35;76.60;100252.05;1754182;81;21011;-80
2021/10/20 05:30:32;;;;;;;10.30;6.65;;;;;;;13.34;76.61;100241.84;1736208;81;20995;-80
2021/10/20 05:32:58;;;;;;;10.95;5.90;;;;;;;13.33;76.63;100245.56;1693820;83;21139;-80
2021/10/20 05:35:24;;;;;;;9.73;5.97;;;;;;;13.33;76.64;100240.20;1694971;83;21477;-80
2021/10/20 05:37:51;;;;;;;12.10;7.00;;;;;;;13.33;76.61;100241.55;1724198;82;21020;-80
2021/10/20 05:40:19;;;;;;;17.45;6.03;;;;;;;13.32;76.64;100242.55;1693606;84;21095;-80
2021/10/20 05:42:45;;;;;;;9.40;5.55;;;;;;;13.33;76.64;100244.73;1696020;83;21573;-80
2021/10/20 05:45:11;;;;;;;9.10;6.00;;;;;;;13.31;76.64;100246.24;1694964;84;21811;-80
2021/10/20 05:47:37;;;;;;;5.87;4.47;;;;;;;13.31;76.65;100238.72;1702180;83;21027;-80
2021/10/20 05:50:04;;;;;;;8.93;5.67;;;;;;;13.31;76.65;100226.66;1724168;82;21046;-80
2021/10/20 05:52:30;;;;;;;7.28;5.08;;;;;;;13.32;76.63;100230.50;1713485;83;21500;-80
2021/10/20 05:54:58;;;;;;;13.58;5.75;;;;;;;13.31;76.62;100236.87;1724559;82;21391;-80
2021/10/20 05:57:26;;;;;;;10.65;6.00;;;;;;;13.28;76.60;100231.91;1726112;83;21122;-80
2021/10/20 05:59:52;;;;;;;10.72;6.45;;;;;;;13.26;76.63;100232.62;1719248;83;21027;-80
2021/10/20 06:02:19;;;;;;;10.03;6.58;;;;;;;13.25;76.64;100236.30;1725772;82;21027;-80
2021/10/20 06:04:45;;;;;;;8.05;4.85;;;;;;;13.23;76.62;100228.95;1735051;82;21027;-80
2021/10/20 06:07:11;;;;;;;8.40;6.15;;;;;;;13.24;76.64;100230.63;1720665;82;21497;-80
2021/10/20 06:09:37;;;;;;;6.83;4.70;;;;;;;13.24;76.65;100227.94;1693975;82;21279;-80
2021/10/20 06:12:04;;;;;;;9.75;6.50;;;;;;;13.24;76.64;100231.95;1734085;82;21070;-80
2021/10/20 06:14:30;;;;;;;9.08;6.00;;;;;;;13.25;76.64;100228.27;1718245;83;21004;-80
2021/10/20 06:16:57;;;;;;;8.35;4.62;;;;;;;13.26;76.66;100229.94;1719016;83;21544;-80
2021/10/20 06:19:23;;;;;;;8.35;4.37;;;;;;;13.27;76.65;100234.76;1718186;82;21061;-80
2021/10/20 06:21:49;;;;;;;11.22;4.92;;;;;;;13.27;76.63;100235.59;1720672;82;22247;-79
2021/10/20 06:24:15;;;;;;;10.48;7.30;;;;;;;13.29;76.63;100223.36;1725538;83;21058;-80
2021/10/20 06:26:41;;;;;;;13.93;4.95;;;;;;;13.28;76.62;100223.87;1730629;82;21099;-79
2021/10/20 06:29:07;;;;;;;7.55;4.78;;;;;;;13.31;76.64;100226.66;1720437;82;21087;-79
2021/10/20 06:31:33;;;;;;;7.55;4.50;;;;;;;13.33;76.62;100220.63;1707830;82;21046;-79
2021/10/20 06:33:59;;;;;;;6.60;4.72;;;;;;;13.35;76.62;100219.40;1723859;83;21472;-80
2021/10/20 06:36:30;;;;;;;5.55;4.05;;;;;;;13.39;76.62;100220.68;1748871;81;21002;-80
2021/10/20 06:38:57;;;;;;;7.92;4.65;;;;;;;13.45;76.57;100221.23;1816314;79;20980;-79
2021/10/20 06:41:23;;;;;;;10.70;4.87;;;;;;;13.52;76.56;100207.89;1813354;78;21014;-79
2021/10/20 06:43:49;;;;;;;5.10;3.92;;;;;;;13.59;76.53;100214.64;1789517;78;21078;-80
2021/10/20 06:46:15;;;;;;;9.53;4.50;;;;;;;13.65;76.47;100203.17;1798767;78;21085;-80
2021/10/20 06:48:41;;;;;;;6.83;5.10;;;;;;;13.74;76.44;100196.63;1796811;77;21117;-79
2021/10/20 06:51:09;;;;;;;5.25;4.15;;;;;;;13.81;76.40;100206.37;1805053;78;20995;-79
2021/10/20 06:53:36;;;;;;;9.50;4.85;;;;;;;13.90;76.35;100203.02;1806743;77;21106;-80
2021/10/20 06:56:03;;;;;;;6.33;4.03;;;;;;;13.96;76.29;100199.07;1792727;78;21022;-80
2021/10/20 06:58:29;;;;;;;10.35;5.50;;;;;;;14.03;76.19;100199.11;1803088;78;21058;-79
2021/10/20 07:00:55;;;;;;;6.50;4.37;;;;;;;14.09;76.11;100194.29;1792524;78;21048;-80
2021/10/20 07:03:21;;;;;;;8.20;4.95;;;;;;;14.16;76.01;100199.17;1802842;78;21082;-80
2021/10/20 07:05:48;;;;;;;10.30;4.12;;;;;;;14.24;75.90;100197.69;1811042;78;20995;-80
2021/10/20 07:08:14;;;;;;;7.33;4.17;;;;;;;14.31;75.83;100186.98;1799343;78;21043;-80
2021/10/20 07:10:40;;;;;;;7.83;4.50;;;;;;;14.38;75.70;100191.89;1794962;78;21019;-80
2021/10/20 07:13:06;;;;;;;5.97;3.80;;;;;;;14.45;75.59;100194.92;1790155;78;21027;-80
2021/10/20 07:15:32;;;;;;;7.55;4.30;;;;;;;14.54;75.46;100197.42;1795713;78;20992;-79
2021/10/20 07:17:58;;;;;;;9.65;4.30;;;;;;;14.60;75.34;100189.92;1800960;79;21086;-81
2021/10/20 07:20:25;;;;;;;5.00;3.90;;;;;;;14.66;75.25;100187.27;1810953;78;21042;-81
2021/10/20 07:22:51;;;;;;;9.95;3.55;;;;;;;14.73;75.11;100190.80;1783569;80;21546;-80
2021/10/20 07:25:20;;;;;;;8.43;4.10;;;;;;;14.79;74.99;100189.98;1783375;80;21014;-81
2021/10/20 07:27:46;;;;;;;6.80;3.85;;;;;;;14.83;74.85;100185.87;1784622;80;21547;-80
2021/10/20 07:30:13;;;;;;;5.53;3.87;;;;;;;14.89;74.66;100178.84;1784626;80;21011;-80
2021/10/20 07:32:39;;;;;;;5.50;3.60;;;;;;;14.98;74.49;100173.10;1783959;80;21050;-81
2021/10/20 07:35:10;;;;;;;6.17;3.45;;;;;;;14.98;74.49;100173.10;1784222;79;21285;-81
2021/10/20 07:37:36;;;;;;;4.90;3.80;;;;;;;15.08;74.26;100172.70;1784243;80;21473;-81
2021/10/20 07:40:05;;;;;;;8.10;3.47;;;;;;;15.16;74.14;100167.14;1784348;80;21969;-80
2021/10/20 07:42:33;;;;;;;5.72;3.47;;;;;;;15.21;74.00;100161.95;1784253;80;21038;-81
2021/10/20 07:44:59;;;;;;;6.72;4.10;;;;;;;15.32;73.62;100150.59;1784105;80;21475;-81
2021/10/20 07:47:26;;;;;;;12.28;4.60;;;;;;;15.32;73.62;100150.59;1784144;80;21847;-80
2021/10/20 07:49:54;;;;;;;9.70;4.55;;;;;;;15.37;73.53;100154.85;1784160;80;20987;-80
2021/10/20 07:52:23;;;;;;;5.67;3.70;;;;;;;15.42;73.39;100147.48;1784173;80;21050;-80
2021/10/20 07:54:47;;;;;;;9.53;5.45;;;;;;;15.49;73.17;100143.80;1783737;80;21102;-80
2021/10/20 07:57:13;;;;;;;8.33;3.80;;;;;;;15.57;73.32;100139.25;1784246;80;21042;-81
2021/10/20 07:59:39;;;;;;;8.50;4.30;;;;;;;15.61;72.98;100132.42;1784118;80;21154;-80
2021/10/20 08:02:05;;;;;;;6.22;3.75;;;;;;;15.63;72.81;100131.69;1783953;80;21010;-80
2021/10/20 08:04:31;;;;;;;7.87;4.30;;;;;;;15.68;72.71;100131.89;1784310;80;21403;-81
2021/10/20 08:06:57;;;;;;;4.55;3.98;;;;;;;15.73;72.58;100125.35;1783881;80;21066;-81
2021/10/20 08:09:23;;;;;;;6.20;4.35;;;;;;;15.79;72.49;100127.23;1784273;80;21039;-81
2021/10/20 08:11:49;;;;;;;6.03;3.90;;;;;;;15.84;72.37;100121.52;1784293;80;21057;-80
2021/10/20 08:14:16;;;;;;;5.37;3.42;;;;;;;15.87;72.27;100118.91;1783724;80;21179;-80
2021/10/20 08:16:42;;;;;;;6.78;4.33;;;;;;;15.91;72.14;100110.73;1784134;80;20982;-80
2021/10/20 08:19:08;;;;;;;8.88;4.45;;;;;;;15.96;72.06;100114.97;1784086;80;21002;-81
2021/10/20 08:21:34;;;;;;;5.78;3.92;;;;;;;16.03;71.96;100109.05;1784099;80;21059;-81
2021/10/20 08:24:00;;;;;;;6.03;4.30;;;;;;;16.08;71.83;100111.11;1784042;80;21111;-81
2021/10/20 08:26:26;;;;;;;8.60;4.83;;;;;;;16.11;71.72;100112.86;1784149;80;21050;-81
2021/10/20 08:28:52;;;;;;;8.70;4.22;;;;;;;16.15;71.65;100108.67;1783930;80;21069;-81
2021/10/20 08:31:18;;;;;;;7.75;4.10;;;;;;;16.22;71.54;100108.13;1784138;80;21030;-80
2021/10/20 08:33:44;;;;;;;4.95;4.00;;;;;;;16.26;71.44;100105.33;1784019;80;21034;-81
2021/10/20 08:36:10;;;;;;;8.60;5.58;;;;;;;16.32;71.37;100106.35;1783962;80;21134;-81
2021/10/20 08:38:36;;;;;;;10.80;7.47;;;;;;;16.33;71.24;100104.77;1783816;80;21039;-81
2021/10/20 08:41:02;;;;;;;7.17;4.95;;;;;;;16.37;71.17;100096.58;1784189;80;21035;-81
2021/10/20 08:43:28;;;;;;;10.55;4.87;;;;;;;16.42;71.14;100102.16;1784374;80;21015;-81
2021/10/20 08:45:54;;;;;;;11.05;4.80;;;;;;;16.51;71.05;100098.68;1783870;80;20996;-81
2021/10/20 08:48:24;;;;;;;7.08;4.60;;;;;;;16.61;70.96;100100.92;1784266;80;21496;-80
2021/10/20 08:50:53;;;;;;;9.05;4.10;;;;;;;16.65;70.84;100095.42;1784006;80;21500;-80
2021/10/20 08:53:20;;;;;;;6.95;3.87;;;;;;;16.70;70.75;100090.22;1784390;80;21077;-80
2021/10/20 08:55:50;;;;;;;7.00;5.03;;;;;;;16.73;70.63;100087.09;1784158;80;21484;-80
2021/10/20 08:58:16;;;;;;;8.68;4.55;;;;;;;16.77;70.54;100090.48;1784207;80;21038;-80
2021/10/20 09:00:42;;;;;;;8.00;4.60;;;;;;;16.80;70.45;100085.17;1784262;80;21300;-80
2021/10/20 09:03:09;;;;;;;7.33;5.10;;;;;;;16.85;70.37;100079.98;1783828;80;21034;-80
2021/10/20 09:05:35;;;;;;;24.02;10.78;;;;;;;16.94;70.25;100082.69;1784155;80;21526;-81
2021/10/20 09:08:01;;;;;;;55.20;35.25;;;;;;;17.09;70.20;100073.77;1751078;80;21030;-81
2021/10/20 09:10:29;;;;;;;9.93;6.15;;;;;;;17.20;70.06;100067.67;1784056;80;21002;-81
2021/10/20 09:12:56;;;;;;;7.25;4.42;;;;;;;17.31;69.93;100069.62;1784129;80;21496;-81
2021/10/20 09:15:25;;;;;;;7.42;3.92;;;;;;;17.46;69.74;100074.14;1783916;80;21471;-81
2021/10/20 09:17:59;;;;;;;6.05;3.85;;;;;;;17.62;69.57;100065.22;1784078;80;21003;-81
2021/10/20 09:20:41;;;;;;;7.12;4.30;;;;;;;17.79;69.30;100062.22;1783687;80;21558;-81
2021/10/20 09:23:16;;;;;;;5.30;3.90;;;;;;;17.86;69.04;100059.75;1750783;80;21586;-80
2021/10/20 09:25:58;;;;;;;4.80;3.52;;;;;;;17.89;68.71;100050.37;1784046;80;21216;-81
2021/10/20 09:28:33;;;;;;;9.70;3.30;;;;;;;17.98;68.50;100034.16;1789807;78;21093;-80
2021/10/20 09:31:02;;;;;;;6.47;3.95;;;;;;;18.11;68.07;100034.02;1793792;78;20996;-81
2021/10/20 09:33:34;;;;;;;5.53;3.33;;;;;;;18.21;67.62;100038.34;1740159;80;21503;-80
2021/10/20 09:36:08;;;;;;;5.12;2.72;;;;;;;18.25;67.21;100042.23;1798247;77;21572;-80
2021/10/20 09:38:40;;;;;;;4.75;2.90;;;;;;;18.27;66.83;100040.12;1769330;79;21383;-80
2021/10/20 09:41:08;;;;;;;4.25;2.75;;;;;;;18.38;66.62;100047.45;1771151;79;21044;-80
2021/10/20 09:43:40;;;;;;;7.17;4.20;;;;;;;18.55;66.35;100044.94;1778609;79;21058;-80
2021/10/20 09:46:06;;;;;;;7.35;2.75;;;;;;;18.66;65.92;100038.75;1753837;79;20983;-79
2021/10/20 09:48:34;;;;;;;4.75;2.50;;;;;;;18.68;65.50;100033.13;1785314;79;21034;-80
2021/10/20 09:51:11;;;;;;;4.47;2.80;;;;;;;18.65;65.25;100025.47;1745893;79;21178;-80
2021/10/20 09:53:41;;;;;;;3.08;2.40;;;;;;;18.66;64.68;100019.84;1776370;78;21088;-80
2021/10/20 09:56:23;;;;;;;;;;;;;;;18.71;64.11;100021.34;1780852;79;21090;-80
2021/10/20 09:58:50;;;;;;;4.22;2.60;;;;;;;18.78;63.81;100014.48;1771635;79;20654;-80
2021/10/20 10:01:27;;;;;;;6.92;3.45;;;;;;;18.80;63.51;100012.34;1772832;78;21042;-80
2021/10/20 10:04:02;;;;;;;6.20;2.62;;;;;;;18.79;63.17;100007.99;1778434;79;21138;-80
2021/10/20 10:06:28;;;;;;;7.10;2.37;;;;;;;18.74;62.82;100007.36;1769762;79;21370;-80
2021/10/20 10:08:54;;;;;;;5.00;2.67;;;;;;;18.78;62.62;100010.42;1731157;79;21003;-80
2021/10/20 10:11:20;;;;;;;3.58;2.40;;;;;;;18.82;62.31;100004.85;1772198;79;20993;-79
2021/10/20 10:13:55;;;;;;;5.90;2.90;;;;;;;18.84;61.83;100001.38;1784273;79;21008;-80
2021/10/20 10:16:24;;;;;;;5.03;2.90;;;;;;;19.01;61.78;100000.98;1774514;79;21190;-79
2021/10/20 10:18:53;;;;;;;7.20;3.45;;;;;;;19.27;61.48;99998.34;1785017;78;21092;-80
2021/10/20 10:21:40;;;;;;;4.30;2.98;;;;;;;19.51;61.21;99985.63;1708144;83;21000;-79
2021/10/20 10:24:14;;;;;;;3.60;2.67;;;;;;;19.70;60.92;99979.02;1698188;83;21897;-78
2021/10/20 10:27:10;;;;;;;5.58;3.20;;;;;;;19.90;60.61;99967.23;1722308;83;21055;-79
2021/10/20 10:30:03;;;;;;;6.20;2.10;;;;;;;20.10;60.25;99966.80;1716926;83;21558;-79
2021/10/20 10:32:29;;;;;;;5.50;2.75;;;;;;;20.27;59.75;99969.86;1749399;81;21021;-79
2021/10/20 10:34:56;;;;;;;4.85;2.77;;;;;;;20.40;59.24;99961.45;1711668;83;21510;-80
2021/10/20 10:37:31;;;;;;;3.58;2.10;;;;;;;20.53;58.91;99960.83;1737791;81;21018;-79
2021/10/20 10:40:22;;;;;;;4.33;1.77;;;;;;;20.69;58.54;99953.25;1763780;81;21081;-79
2021/10/20 10:42:49;;;;;;;8.85;3.42;;;;;;;20.83;58.16;99948.58;1762064;81;21270;-79
2021/10/20 10:45:23;;;;;;;4.97;2.77;;;;;;;20.99;57.86;99938.80;1743290;82;21564;-80
2021/10/20 10:48:02;;;;;;;7.60;3.00;;;;;;;21.09;57.64;99933.52;1760570;81;21420;-79
2021/10/20 10:50:55;;;;;;;5.33;2.70;;;;;;;21.14;57.36;99921.96;1743121;82;21050;-81
2021/10/20 10:53:33;;;;;;;1.98;1.60;;;;;;;21.20;56.71;99910.92;1743277;81;21091;-80
2021/10/20 10:56:13;;;;;;;6.55;4.50;;;;;;;21.26;56.08;99912.63;1733737;82;21593;-80
2021/10/20 10:59:03;;;;;;;5.12;3.85;;;;;;;21.27;55.27;99896.64;1733382;82;21097;-80
2021/10/20 11:01:48;;;;;;;8.53;6.35;;;;;;;21.29;54.60;99895.84;1733954;82;21050;-80
2021/10/20 11:04:25;;;;;;;13.70;7.83;;;;;;;21.38;54.01;99877.25;1733586;82;21026;-80
2021/10/20 11:06:54;;;;;;;6.12;3.02;;;;;;;21.38;53.40;99874.00;1733501;82;22224;-80
2021/10/20 11:09:23;;;;;;;7.70;2.05;;;;;;;21.48;53.04;99862.97;1745769;81;21570;-80
2021/10/20 11:11:51;;;;;;;9.53;1.80;;;;;;;21.52;52.83;99866.28;1739435;81;21025;-80
2021/10/20 11:14:21;;;;;;;8.85;2.30;;;;;;;21.43;52.13;99855.05;1751328;81;21531;-80
2021/10/20 11:16:49;;;;;;;5.20;3.35;;;;;;;21.38;51.61;99850.11;1733666;82;20999;-80
2021/10/20 11:19:20;;;;;;;4.42;2.75;;;;;;;21.37;51.23;99846.58;1733818;82;21551;-80
2021/10/20 11:21:46;;;;;;;9.70;4.12;;;;;;;21.40;50.39;99843.35;1744969;81;22391;-80
2021/10/20 11:24:14;;;;;;;9.88;3.87;;;;;;;21.40;49.87;99847.42;1763820;81;21050;-80
2021/10/20 11:26:40;;;;;;;10.35;4.53;;;;;;;21.41;48.94;99845.00;1764199;81;21022;-80